sensor_id;sensor_type;location;lat;lon;timestamp;P1;durP1;ratioP1;P2;durP2;ratioP2
6713;SDS011;3394;51.246;6.792;2023-05-17T00:00:33;6.77;;;3.63;;
6713;SDS011;3394;51.246;6.792;2023-05-17T00:01:32;6.00;;;3.97;;
6713;SDS011;3394;51.246;6.792;2023-05-17T00:02:30;12.20;;;4.27;;
6713;SDS011;3394;51.246;6.792;2023-05-17T00:03:29;6.57;;;3.55;;
6713;SDS011;3394;51.246;6.792;2023-05-17T00:04:27;6.83;;;3.90;;
6713;SDS011;3394;51.246;6.792;2023-05-17T00:05:27;7.38;;;4.10;;
6713;SDS011;3394;51.246;6.792;2023-05-17T00:06:25;7.97;;;3.83;;
6713;SDS011;3394;51.246;6.792;2023-05-17T00:07:25;6.57;;;3.65;;
6713;SDS011;3394;51.246;6.792;2023-05-17T00:08:22;6.90;;;3.53;;
6713;SDS011;3394;51.246;6.792;2023-05-17T00:09:21;5.05;;;3.58;;
6713;SDS011;3394;51.246;6.792;2023-05-17T00:10:19;6.47;;;4.03;;
6713;SDS011;3394;51.246;6.792;2023-05-17T00:11:18;7.82;;;4.22;;
6713;SDS011;3394;51.246;6.792;2023-05-17T00:12:16;8.00;;;3.60;;
6713;SDS011;3394;51.246;6.792;2023-05-17T00:13:15;6.25;;;4.00;;
6713;SDS011;3394;51.246;6.792;2023-05-17T00:14:13;9.35;;;3.95;;
6713;SDS011;3394;51.246;6.792;2023-05-17T00:15:12;7.28;;;3.72;;
6713;SDS011;3394;51.246;6.792;2023-05-17T00:16:10;7.25;;;3.92;;
6713;SDS011;3394;51.246;6.792;2023-05-17T00:17:09;9.73;;;4.18;;
6713;SDS011;3394;51.246;6.792;2023-05-17T00:18:07;7.07;;;3.93;;
6713;SDS011;3394;51.246;6.792;2023-05-17T00:19:06;9.13;;;4.07;;
6713;SDS011;3394;51.246;6.792;2023-05-17T00:20:05;7.32;;;3.80;;
6713;SDS011;3394;51.246;6.792;2023-05-17T00:21:06;4.88;;;3.45;;
6713;SDS011;3394;51.246;6.792;2023-05-17T00:22:04;5.82;;;3.40;;
6713;SDS011;3394;51.246;6.792;2023-05-17T00:23:03;7.95;;;4.18;;
6713;SDS011;3394;51.246;6.792;2023-05-17T00:24:01;6.72;;;3.67;;
6713;SDS011;3394;51.246;6.792;2023-05-17T00:25:00;7.47;;;3.60;;
6713;SDS011;3394;51.246;6.792;2023-05-17T00:25:57;4.73;;;3.67;;
6713;SDS011;3394;51.246;6.792;2023-05-17T00:26:56;5.22;;;3.45;;
6713;SDS011;3394;51.246;6.792;2023-05-17T00:27:54;8.10;;;3.70;;
6713;SDS011;3394;51.246;6.792;2023-05-17T00:28:53;4.85;;;3.50;;
6713;SDS011;3394;51.246;6.792;2023-05-17T00:29:51;5.87;;;3.73;;
6713;SDS011;3394;51.246;6.792;2023-05-17T00:30:50;5.22;;;3.65;;
6713;SDS011;3394;51.246;6.792;2023-05-17T00:31:48;8.30;;;3.40;;
6713;SDS011;3394;51.246;6.792;2023-05-17T00:32:46;5.07;;;3.25;;
6713;SDS011;3394;51.246;6.792;2023-05-17T00:33:44;4.30;;;3.20;;
6713;SDS011;3394;51.246;6.792;2023-05-17T00:34:43;4.85;;;3.20;;
6713;SDS011;3394;51.246;6.792;2023-05-17T00:35:41;7.43;;;3.77;;
6713;SDS011;3394;51.246;6.792;2023-05-17T00:36:41;3.40;;;3.10;;
6713;SDS011;3394;51.246;6.792;2023-05-17T00:37:39;4.63;;;2.85;;
6713;SDS011;3394;51.246;6.792;2023-05-17T00:38:43;5.75;;;3.70;;
6713;SDS011;3394;51.246;6.792;2023-05-17T00:39:41;5.10;;;3.80;;
6713;SDS011;3394;51.246;6.792;2023-05-17T00:40:40;5.90;;;3.30;;
6713;SDS011;3394;51.246;6.792;2023-05-17T00:41:38;5.72;;;3.28;;
6713;SDS011;3394;51.246;6.792;2023-05-17T00:42:37;4.35;;;3.13;;
6713;SDS011;3394;51.246;6.792;2023-05-17T00:43:35;4.43;;;3.40;;
6713;SDS011;3394;51.246;6.792;2023-05-17T00:44:34;6.13;;;3.80;;
6713;SDS011;3394;51.246;6.792;2023-05-17T00:45:32;4.73;;;3.13;;
6713;SDS011;3394;51.246;6.792;2023-05-17T00:46:31;6.30;;;3.35;;
6713;SDS011;3394;51.246;6.792;2023-05-17T00:47:29;6.47;;;3.30;;
6713;SDS011;3394;51.246;6.792;2023-05-17T00:48:28;4.88;;;3.45;;
6713;SDS011;3394;51.246;6.792;2023-05-17T00:49:27;4.70;;;3.40;;
6713;SDS011;3394;51.246;6.792;2023-05-17T00:50:26;6.15;;;3.40;;
6713;SDS011;3394;51.246;6.792;2023-05-17T00:51:24;5.20;;;3.75;;
6713;SDS011;3394;51.246;6.792;2023-05-17T00:52:24;4.88;;;4.20;;
6713;SDS011;3394;51.246;6.792;2023-05-17T00:53:23;7.70;;;3.92;;
6713;SDS011;3394;51.246;6.792;2023-05-17T00:54:22;6.45;;;3.63;;
6713;SDS011;3394;51.246;6.792;2023-05-17T00:55:21;6.20;;;3.80;;
6713;SDS011;3394;51.246;6.792;2023-05-17T00:56:20;6.68;;;4.13;;
6713;SDS011;3394;51.246;6.792;2023-05-17T00:57:19;5.55;;;3.35;;
6713;SDS011;3394;51.246;6.792;2023-05-17T00:58:18;6.30;;;4.07;;
6713;SDS011;3394;51.246;6.792;2023-05-17T00:59:16;5.28;;;3.30;;
6713;SDS011;3394;51.246;6.792;2023-05-17T01:00:16;5.28;;;3.90;;
6713;SDS011;3394;51.246;6.792;2023-05-17T01:01:15;7.97;;;3.95;;
6713;SDS011;3394;51.246;6.792;2023-05-17T01:02:14;6.28;;;4.00;;
6713;SDS011;3394;51.246;6.792;2023-05-17T01:03:11;4.97;;;4.03;;
6713;SDS011;3394;51.246;6.792;2023-05-17T01:04:10;7.03;;;4.20;;
6713;SDS011;3394;51.246;6.792;2023-05-17T01:05:08;4.50;;;4.00;;
6713;SDS011;3394;51.246;6.792;2023-05-17T01:06:07;5.05;;;3.88;;
6713;SDS011;3394;51.246;6.792;2023-05-17T01:07:05;5.68;;;4.05;;
6713;SDS011;3394;51.246;6.792;2023-05-17T01:08:07;5.22;;;3.78;;
6713;SDS011;3394;51.246;6.792;2023-05-17T01:09:05;8.63;;;4.03;;
6713;SDS011;3394;51.246;6.792;2023-05-17T01:10:06;5.60;;;4.00;;
6713;SDS011;3394;51.246;6.792;2023-05-17T01:11:06;7.45;;;4.05;;
6713;SDS011;3394;51.246;6.792;2023-05-17T01:12:14;8.45;;;4.22;;
6713;SDS011;3394;51.246;6.792;2023-05-17T01:13:21;5.65;;;4.50;;
6713;SDS011;3394;51.246;6.792;2023-05-17T01:14:27;7.55;;;4.13;;
6713;SDS011;3394;51.246;6.792;2023-05-17T01:15:35;8.68;;;4.13;;
6713;SDS011;3394;51.246;6.792;2023-05-17T01:16:39;5.13;;;4.22;;
6713;SDS011;3394;51.246;6.792;2023-05-17T01:17:46;7.53;;;4.05;;
6713;SDS011;3394;51.246;6.792;2023-05-17T01:18:52;4.55;;;3.78;;
6713;SDS011;3394;51.246;6.792;2023-05-17T01:20:00;5.88;;;3.95;;
6713;SDS011;3394;51.246;6.792;2023-05-17T01:21:03;8.45;;;4.10;;
6713;SDS011;3394;51.246;6.792;2023-05-17T01:22:14;7.93;;;4.07;;
6713;SDS011;3394;51.246;6.792;2023-05-17T01:23:26;7.88;;;4.20;;
6713;SDS011;3394;51.246;6.792;2023-05-17T01:24:38;5.55;;;3.95;;
6713;SDS011;3394;51.246;6.792;2023-05-17T01:25:49;6.60;;;4.00;;
6713;SDS011;3394;51.246;6.792;2023-05-17T01:26:54;4.82;;;3.67;;
6713;SDS011;3394;51.246;6.792;2023-05-17T01:27:53;6.70;;;4.07;;
6713;SDS011;3394;51.246;6.792;2023-05-17T01:28:53;6.72;;;3.83;;
6713;SDS011;3394;51.246;6.792;2023-05-17T01:29:53;6.88;;;3.90;;
6713;SDS011;3394;51.246;6.792;2023-05-17T01:30:54;7.85;;;4.07;;
6713;SDS011;3394;51.246;6.792;2023-05-17T01:31:54;7.05;;;4.47;;
6713;SDS011;3394;51.246;6.792;2023-05-17T01:32:55;7.78;;;4.05;;
6713;SDS011;3394;51.246;6.792;2023-05-17T01:33:54;7.00;;;4.22;;
6713;SDS011;3394;51.246;6.792;2023-05-17T01:34:54;8.70;;;4.78;;
6713;SDS011;3394;51.246;6.792;2023-05-17T01:35:52;9.40;;;4.07;;
6713;SDS011;3394;51.246;6.792;2023-05-17T01:36:51;7.22;;;4.10;;
6713;SDS011;3394;51.246;6.792;2023-05-17T01:37:49;9.53;;;4.17;;
6713;SDS011;3394;51.246;6.792;2023-05-17T01:38:49;9.13;;;4.03;;
6713;SDS011;3394;51.246;6.792;2023-05-17T01:39:47;7.40;;;3.97;;
6713;SDS011;3394;51.246;6.792;2023-05-17T01:40:47;8.88;;;4.85;;
6713;SDS011;3394;51.246;6.792;2023-05-17T01:41:54;8.73;;;4.47;;
6713;SDS011;3394;51.246;6.792;2023-05-17T01:43:03;7.93;;;4.45;;
6713;SDS011;3394;51.246;6.792;2023-05-17T01:44:07;5.40;;;4.00;;
6713;SDS011;3394;51.246;6.792;2023-05-17T01:45:11;7.38;;;4.47;;
6713;SDS011;3394;51.246;6.792;2023-05-17T01:46:15;7.35;;;4.40;;
6713;SDS011;3394;51.246;6.792;2023-05-17T01:47:23;9.15;;;4.05;;
6713;SDS011;3394;51.246;6.792;2023-05-17T01:48:27;7.35;;;4.35;;
6713;SDS011;3394;51.246;6.792;2023-05-17T01:49:30;6.95;;;4.07;;
6713;SDS011;3394;51.246;6.792;2023-05-17T01:50:31;11.40;;;4.25;;
6713;SDS011;3394;51.246;6.792;2023-05-17T01:51:32;4.68;;;3.50;;
6713;SDS011;3394;51.246;6.792;2023-05-17T01:52:37;7.65;;;4.13;;
6713;SDS011;3394;51.246;6.792;2023-05-17T01:53:44;6.97;;;4.90;;
6713;SDS011;3394;51.246;6.792;2023-05-17T01:54:46;5.65;;;3.95;;
6713;SDS011;3394;51.246;6.792;2023-05-17T01:55:50;10.68;;;4.85;;
6713;SDS011;3394;51.246;6.792;2023-05-17T01:56:56;13.18;;;4.28;;
6713;SDS011;3394;51.246;6.792;2023-05-17T01:57:55;9.15;;;4.50;;
6713;SDS011;3394;51.246;6.792;2023-05-17T01:58:55;7.95;;;3.92;;
6713;SDS011;3394;51.246;6.792;2023-05-17T01:59:55;9.13;;;3.90;;
6713;SDS011;3394;51.246;6.792;2023-05-17T02:00:57;5.50;;;3.80;;
6713;SDS011;3394;51.246;6.792;2023-05-17T02:01:58;6.05;;;4.07;;
6713;SDS011;3394;51.246;6.792;2023-05-17T02:03:02;14.98;;;4.38;;
6713;SDS011;3394;51.246;6.792;2023-05-17T02:04:00;6.25;;;3.90;;
6713;SDS011;3394;51.246;6.792;2023-05-17T02:04:59;6.85;;;4.13;;
6713;SDS011;3394;51.246;6.792;2023-05-17T02:05:57;7.27;;;4.30;;
6713;SDS011;3394;51.246;6.792;2023-05-17T02:06:56;8.52;;;4.53;;
6713;SDS011;3394;51.246;6.792;2023-05-17T02:07:54;8.37;;;4.40;;
6713;SDS011;3394;51.246;6.792;2023-05-17T02:08:53;8.77;;;4.47;;
6713;SDS011;3394;51.246;6.792;2023-05-17T02:09:51;8.83;;;4.47;;
6713;SDS011;3394;51.246;6.792;2023-05-17T02:10:50;6.72;;;4.60;;
6713;SDS011;3394;51.246;6.792;2023-05-17T02:11:48;7.73;;;4.63;;
6713;SDS011;3394;51.246;6.792;2023-05-17T02:12:48;8.10;;;4.43;;
6713;SDS011;3394;51.246;6.792;2023-05-17T02:13:46;9.93;;;4.40;;
6713;SDS011;3394;51.246;6.792;2023-05-17T02:14:45;9.95;;;4.55;;
6713;SDS011;3394;51.246;6.792;2023-05-17T02:15:43;8.07;;;4.60;;
6713;SDS011;3394;51.246;6.792;2023-05-17T02:16:42;8.73;;;4.72;;
6713;SDS011;3394;51.246;6.792;2023-05-17T02:17:40;9.17;;;4.10;;
6713;SDS011;3394;51.246;6.792;2023-05-17T02:18:38;8.90;;;4.80;;
6713;SDS011;3394;51.246;6.792;2023-05-17T02:19:37;8.73;;;4.68;;
6713;SDS011;3394;51.246;6.792;2023-05-17T02:20:36;8.43;;;4.47;;
6713;SDS011;3394;51.246;6.792;2023-05-17T02:21:34;8.83;;;4.17;;
6713;SDS011;3394;51.246;6.792;2023-05-17T02:22:32;7.82;;;4.88;;
6713;SDS011;3394;51.246;6.792;2023-05-17T02:23:31;10.18;;;4.35;;
6713;SDS011;3394;51.246;6.792;2023-05-17T02:24:30;9.80;;;4.85;;
6713;SDS011;3394;51.246;6.792;2023-05-17T02:25:27;10.03;;;4.87;;
6713;SDS011;3394;51.246;6.792;2023-05-17T02:26:26;7.40;;;4.55;;
6713;SDS011;3394;51.246;6.792;2023-05-17T02:27:24;7.77;;;4.70;;
6713;SDS011;3394;51.246;6.792;2023-05-17T02:28:25;6.97;;;4.75;;
6713;SDS011;3394;51.246;6.792;2023-05-17T02:29:24;9.25;;;4.88;;
6713;SDS011;3394;51.246;6.792;2023-05-17T02:30:22;9.43;;;4.77;;
6713;SDS011;3394;51.246;6.792;2023-05-17T02:31:21;7.13;;;4.80;;
6713;SDS011;3394;51.246;6.792;2023-05-17T02:32:20;10.75;;;4.78;;
6713;SDS011;3394;51.246;6.792;2023-05-17T02:33:20;7.70;;;4.57;;
6713;SDS011;3394;51.246;6.792;2023-05-17T02:34:17;8.27;;;5.10;;
6713;SDS011;3394;51.246;6.792;2023-05-17T02:35:16;10.10;;;5.00;;
6713;SDS011;3394;51.246;6.792;2023-05-17T02:36:14;9.88;;;5.03;;
6713;SDS011;3394;51.246;6.792;2023-05-17T02:37:13;8.20;;;4.88;;
6713;SDS011;3394;51.246;6.792;2023-05-17T02:38:11;8.63;;;5.03;;
6713;SDS011;3394;51.246;6.792;2023-05-17T02:39:10;12.90;;;5.22;;
6713;SDS011;3394;51.246;6.792;2023-05-17T02:40:08;6.80;;;4.72;;
6713;SDS011;3394;51.246;6.792;2023-05-17T02:41:08;7.53;;;5.15;;
6713;SDS011;3394;51.246;6.792;2023-05-17T02:42:06;8.63;;;5.30;;
6713;SDS011;3394;51.246;6.792;2023-05-17T02:43:05;9.63;;;5.28;;
6713;SDS011;3394;51.246;6.792;2023-05-17T02:44:04;9.90;;;5.23;;
6713;SDS011;3394;51.246;6.792;2023-05-17T02:45:03;7.38;;;5.07;;
6713;SDS011;3394;51.246;6.792;2023-05-17T02:46:01;8.75;;;4.95;;
6713;SDS011;3394;51.246;6.792;2023-05-17T02:47:01;6.90;;;5.07;;
6713;SDS011;3394;51.246;6.792;2023-05-17T02:47:58;7.13;;;5.27;;
6713;SDS011;3394;51.246;6.792;2023-05-17T02:48:57;9.30;;;5.53;;
6713;SDS011;3394;51.246;6.792;2023-05-17T02:49:55;8.10;;;5.50;;
6713;SDS011;3394;51.246;6.792;2023-05-17T02:50:54;9.82;;;5.03;;
6713;SDS011;3394;51.246;6.792;2023-05-17T02:51:52;7.60;;;5.77;;
6713;SDS011;3394;51.246;6.792;2023-05-17T02:52:52;10.57;;;5.60;;
6713;SDS011;3394;51.246;6.792;2023-05-17T02:53:50;14.60;;;5.40;;
6713;SDS011;3394;51.246;6.792;2023-05-17T02:54:48;6.38;;;5.20;;
6713;SDS011;3394;51.246;6.792;2023-05-17T02:55:47;9.25;;;5.28;;
6713;SDS011;3394;51.246;6.792;2023-05-17T02:56:46;8.57;;;5.30;;
6713;SDS011;3394;51.246;6.792;2023-05-17T02:57:44;10.80;;;5.90;;
6713;SDS011;3394;51.246;6.792;2023-05-17T02:58:43;9.13;;;5.70;;
6713;SDS011;3394;51.246;6.792;2023-05-17T02:59:42;8.93;;;5.80;;
6713;SDS011;3394;51.246;6.792;2023-05-17T03:00:43;11.65;;;5.10;;
6713;SDS011;3394;51.246;6.792;2023-05-17T03:01:41;11.32;;;6.03;;
6713;SDS011;3394;51.246;6.792;2023-05-17T03:02:40;8.27;;;5.75;;
6713;SDS011;3394;51.246;6.792;2023-05-17T03:03:37;8.37;;;5.80;;
6713;SDS011;3394;51.246;6.792;2023-05-17T03:04:36;10.60;;;6.63;;
6713;SDS011;3394;51.246;6.792;2023-05-17T03:05:34;8.57;;;5.07;;
6713;SDS011;3394;51.246;6.792;2023-05-17T03:06:33;10.70;;;6.05;;
6713;SDS011;3394;51.246;6.792;2023-05-17T03:07:31;11.27;;;5.67;;
6713;SDS011;3394;51.246;6.792;2023-05-17T03:08:30;8.88;;;5.50;;
6713;SDS011;3394;51.246;6.792;2023-05-17T03:09:28;12.53;;;5.73;;
6713;SDS011;3394;51.246;6.792;2023-05-17T03:10:27;11.52;;;6.30;;
6713;SDS011;3394;51.246;6.792;2023-05-17T03:11:24;11.63;;;5.17;;
6713;SDS011;3394;51.246;6.792;2023-05-17T03:12:23;10.57;;;5.88;;
6713;SDS011;3394;51.246;6.792;2023-05-17T03:13:21;9.37;;;5.83;;
6713;SDS011;3394;51.246;6.792;2023-05-17T03:14:20;9.25;;;5.72;;
6713;SDS011;3394;51.246;6.792;2023-05-17T03:15:20;9.20;;;5.77;;
6713;SDS011;3394;51.246;6.792;2023-05-17T03:16:19;15.60;;;6.78;;
6713;SDS011;3394;51.246;6.792;2023-05-17T03:17:17;11.85;;;6.10;;
6713;SDS011;3394;51.246;6.792;2023-05-17T03:18:16;9.45;;;6.05;;
6713;SDS011;3394;51.246;6.792;2023-05-17T03:19:14;13.20;;;6.57;;
6713;SDS011;3394;51.246;6.792;2023-05-17T03:20:13;9.13;;;6.10;;
6713;SDS011;3394;51.246;6.792;2023-05-17T03:21:11;11.35;;;6.60;;
6713;SDS011;3394;51.246;6.792;2023-05-17T03:22:10;11.45;;;7.00;;
6713;SDS011;3394;51.246;6.792;2023-05-17T03:23:08;15.43;;;8.00;;
6713;SDS011;3394;51.246;6.792;2023-05-17T03:24:07;9.07;;;8.07;;
6713;SDS011;3394;51.246;6.792;2023-05-17T03:25:05;14.20;;;7.78;;
6713;SDS011;3394;51.246;6.792;2023-05-17T03:26:04;11.70;;;8.45;;
6713;SDS011;3394;51.246;6.792;2023-05-17T03:27:02;10.73;;;8.30;;
6713;SDS011;3394;51.246;6.792;2023-05-17T03:28:01;11.13;;;7.85;;
6713;SDS011;3394;51.246;6.792;2023-05-17T03:28:59;11.03;;;8.03;;
6713;SDS011;3394;51.246;6.792;2023-05-17T03:29:58;10.13;;;8.52;;
6713;SDS011;3394;51.246;6.792;2023-05-17T03:30:57;11.03;;;8.53;;
6713;SDS011;3394;51.246;6.792;2023-05-17T03:31:56;14.55;;;8.15;;
6713;SDS011;3394;51.246;6.792;2023-05-17T03:32:54;16.40;;;8.10;;
6713;SDS011;3394;51.246;6.792;2023-05-17T03:33:53;16.00;;;8.30;;
6713;SDS011;3394;51.246;6.792;2023-05-17T03:34:51;15.45;;;8.55;;
6713;SDS011;3394;51.246;6.792;2023-05-17T03:35:50;26.80;;;9.77;;
6713;SDS011;3394;51.246;6.792;2023-05-17T03:36:48;16.00;;;8.53;;
6713;SDS011;3394;51.246;6.792;2023-05-17T03:37:47;19.48;;;9.40;;
6713;SDS011;3394;51.246;6.792;2023-05-17T03:38:45;10.57;;;8.13;;
6713;SDS011;3394;51.246;6.792;2023-05-17T03:39:44;11.18;;;8.30;;
6713;SDS011;3394;51.246;6.792;2023-05-17T03:40:42;14.07;;;7.93;;
6713;SDS011;3394;51.246;6.792;2023-05-17T03:41:41;15.23;;;8.40;;
6713;SDS011;3394;51.246;6.792;2023-05-17T03:42:39;13.47;;;9.17;;
6713;SDS011;3394;51.246;6.792;2023-05-17T03:43:38;14.25;;;8.07;;
6713;SDS011;3394;51.246;6.792;2023-05-17T03:44:35;12.93;;;8.30;;
6713;SDS011;3394;51.246;6.792;2023-05-17T03:45:34;12.27;;;8.23;;
6713;SDS011;3394;51.246;6.792;2023-05-17T03:46:34;11.60;;;7.47;;
6713;SDS011;3394;51.246;6.792;2023-05-17T03:47:32;17.25;;;8.63;;
6713;SDS011;3394;51.246;6.792;2023-05-17T03:48:30;14.13;;;8.17;;
6713;SDS011;3394;51.246;6.792;2023-05-17T03:49:29;10.82;;;8.07;;
6713;SDS011;3394;51.246;6.792;2023-05-17T03:50:27;14.20;;;8.83;;
6713;SDS011;3394;51.246;6.792;2023-05-17T03:51:28;15.68;;;8.88;;
6713;SDS011;3394;51.246;6.792;2023-05-17T03:52:25;16.43;;;8.90;;
6713;SDS011;3394;51.246;6.792;2023-05-17T03:53:24;13.38;;;8.98;;
6713;SDS011;3394;51.246;6.792;2023-05-17T03:54:22;13.20;;;8.23;;
6713;SDS011;3394;51.246;6.792;2023-05-17T03:55:21;15.13;;;8.50;;
6713;SDS011;3394;51.246;6.792;2023-05-17T03:56:19;18.23;;;8.23;;
6713;SDS011;3394;51.246;6.792;2023-05-17T03:57:18;11.10;;;8.40;;
6713;SDS011;3394;51.246;6.792;2023-05-17T03:58:17;14.57;;;8.63;;
6713;SDS011;3394;51.246;6.792;2023-05-17T03:59:16;15.15;;;8.00;;
6713;SDS011;3394;51.246;6.792;2023-05-17T04:00:14;14.53;;;8.43;;
6713;SDS011;3394;51.246;6.792;2023-05-17T04:01:17;14.25;;;7.97;;
6713;SDS011;3394;51.246;6.792;2023-05-17T04:02:18;14.35;;;7.78;;
6713;SDS011;3394;51.246;6.792;2023-05-17T04:03:16;12.82;;;8.30;;
6713;SDS011;3394;51.246;6.792;2023-05-17T04:04:14;14.40;;;8.23;;
6713;SDS011;3394;51.246;6.792;2023-05-17T04:05:13;16.83;;;8.20;;
6713;SDS011;3394;51.246;6.792;2023-05-17T04:06:11;13.23;;;8.43;;
6713;SDS011;3394;51.246;6.792;2023-05-17T04:07:10;13.55;;;8.00;;
6713;SDS011;3394;51.246;6.792;2023-05-17T04:08:08;16.63;;;7.93;;
6713;SDS011;3394;51.246;6.792;2023-05-17T04:09:07;15.80;;;8.52;;
6713;SDS011;3394;51.246;6.792;2023-05-17T04:10:07;11.70;;;8.23;;
6713;SDS011;3394;51.246;6.792;2023-05-17T04:11:06;12.80;;;7.22;;
6713;SDS011;3394;51.246;6.792;2023-05-17T04:12:06;14.13;;;8.18;;
6713;SDS011;3394;51.246;6.792;2023-05-17T04:13:06;13.70;;;8.93;;
6713;SDS011;3394;51.246;6.792;2023-05-17T04:14:05;12.05;;;7.85;;
6713;SDS011;3394;51.246;6.792;2023-05-17T04:15:04;15.18;;;8.38;;
6713;SDS011;3394;51.246;6.792;2023-05-17T04:16:03;18.73;;;8.38;;
6713;SDS011;3394;51.246;6.792;2023-05-17T04:17:02;16.17;;;8.10;;
6713;SDS011;3394;51.246;6.792;2023-05-17T04:18:02;14.80;;;7.60;;
6713;SDS011;3394;51.246;6.792;2023-05-17T04:19:01;12.50;;;7.80;;
6713;SDS011;3394;51.246;6.792;2023-05-17T04:19:59;12.67;;;8.00;;
6713;SDS011;3394;51.246;6.792;2023-05-17T04:20:58;14.77;;;7.30;;
6713;SDS011;3394;51.246;6.792;2023-05-17T04:21:56;10.60;;;7.37;;
6713;SDS011;3394;51.246;6.792;2023-05-17T04:22:54;12.90;;;7.90;;
6713;SDS011;3394;51.246;6.792;2023-05-17T04:23:52;15.80;;;7.50;;
6713;SDS011;3394;51.246;6.792;2023-05-17T04:24:51;12.30;;;7.53;;
6713;SDS011;3394;51.246;6.792;2023-05-17T04:25:49;13.93;;;7.93;;
6713;SDS011;3394;51.246;6.792;2023-05-17T04:26:49;14.88;;;7.72;;
6713;SDS011;3394;51.246;6.792;2023-05-17T04:27:46;13.77;;;8.10;;
6713;SDS011;3394;51.246;6.792;2023-05-17T04:28:45;12.57;;;7.43;;
6713;SDS011;3394;51.246;6.792;2023-05-17T04:29:43;13.40;;;7.80;;
6713;SDS011;3394;51.246;6.792;2023-05-17T04:30:42;10.15;;;7.47;;
6713;SDS011;3394;51.246;6.792;2023-05-17T04:31:41;13.05;;;7.78;;
6713;SDS011;3394;51.246;6.792;2023-05-17T04:32:43;15.90;;;8.30;;
6713;SDS011;3394;51.246;6.792;2023-05-17T04:33:43;14.60;;;8.10;;
6713;SDS011;3394;51.246;6.792;2023-05-17T04:34:41;10.68;;;8.30;;
6713;SDS011;3394;51.246;6.792;2023-05-17T04:35:40;12.30;;;7.28;;
6713;SDS011;3394;51.246;6.792;2023-05-17T04:36:39;11.57;;;8.02;;
6713;SDS011;3394;51.246;6.792;2023-05-17T04:37:37;14.40;;;7.82;;
6713;SDS011;3394;51.246;6.792;2023-05-17T04:38:36;14.13;;;7.38;;
6713;SDS011;3394;51.246;6.792;2023-05-17T04:39:34;15.27;;;7.67;;
6713;SDS011;3394;51.246;6.792;2023-05-17T04:40:33;10.38;;;7.55;;
6713;SDS011;3394;51.246;6.792;2023-05-17T04:41:31;14.45;;;7.70;;
6713;SDS011;3394;51.246;6.792;2023-05-17T04:42:30;19.73;;;8.60;;
6713;SDS011;3394;51.246;6.792;2023-05-17T04:43:28;13.77;;;8.47;;
6713;SDS011;3394;51.246;6.792;2023-05-17T04:44:27;14.52;;;7.70;;
6713;SDS011;3394;51.246;6.792;2023-05-17T04:45:25;12.90;;;8.27;;
6713;SDS011;3394;51.246;6.792;2023-05-17T04:46:24;9.93;;;7.38;;
6713;SDS011;3394;51.246;6.792;2023-05-17T04:47:22;13.18;;;7.57;;
6713;SDS011;3394;51.246;6.792;2023-05-17T04:48:22;11.60;;;7.68;;
6713;SDS011;3394;51.246;6.792;2023-05-17T04:49:21;14.53;;;8.83;;
6713;SDS011;3394;51.246;6.792;2023-05-17T04:50:21;12.30;;;7.75;;
6713;SDS011;3394;51.246;6.792;2023-05-17T04:51:19;15.23;;;7.90;;
6713;SDS011;3394;51.246;6.792;2023-05-17T04:52:17;15.82;;;8.93;;
6713;SDS011;3394;51.246;6.792;2023-05-17T04:53:15;11.60;;;7.97;;
6713;SDS011;3394;51.246;6.792;2023-05-17T04:54:14;12.10;;;7.55;;
6713;SDS011;3394;51.246;6.792;2023-05-17T04:55:12;16.08;;;8.93;;
6713;SDS011;3394;51.246;6.792;2023-05-17T04:56:11;16.02;;;8.18;;
6713;SDS011;3394;51.246;6.792;2023-05-17T04:57:09;12.63;;;7.93;;
6713;SDS011;3394;51.246;6.792;2023-05-17T04:58:08;13.73;;;8.30;;
6713;SDS011;3394;51.246;6.792;2023-05-17T04:59:06;18.10;;;8.70;;
6713;SDS011;3394;51.246;6.792;2023-05-17T05:00:05;13.23;;;7.65;;
6713;SDS011;3394;51.246;6.792;2023-05-17T05:01:05;14.85;;;8.27;;
6713;SDS011;3394;51.246;6.792;2023-05-17T05:02:04;15.25;;;8.27;;
6713;SDS011;3394;51.246;6.792;2023-05-17T05:03:02;16.70;;;8.63;;
6713;SDS011;3394;51.246;6.792;2023-05-17T05:04:01;13.68;;;8.20;;
6713;SDS011;3394;51.246;6.792;2023-05-17T05:05:04;15.50;;;8.63;;
6713;SDS011;3394;51.246;6.792;2023-05-17T05:06:04;12.68;;;8.38;;
6713;SDS011;3394;51.246;6.792;2023-05-17T05:07:03;17.40;;;8.38;;
6713;SDS011;3394;51.246;6.792;2023-05-17T05:08:01;16.38;;;8.88;;
6713;SDS011;3394;51.246;6.792;2023-05-17T05:09:00;14.95;;;9.52;;
6713;SDS011;3394;51.246;6.792;2023-05-17T05:10:00;15.48;;;8.30;;
6713;SDS011;3394;51.246;6.792;2023-05-17T05:10:59;18.00;;;9.05;;
6713;SDS011;3394;51.246;6.792;2023-05-17T05:11:56;17.47;;;9.10;;
6713;SDS011;3394;51.246;6.792;2023-05-17T05:12:55;17.10;;;9.48;;
6713;SDS011;3394;51.246;6.792;2023-05-17T05:13:54;17.80;;;9.00;;
6713;SDS011;3394;51.246;6.792;2023-05-17T05:14:53;14.70;;;9.05;;
6713;SDS011;3394;51.246;6.792;2023-05-17T05:15:52;14.82;;;9.57;;
6713;SDS011;3394;51.246;6.792;2023-05-17T05:16:51;19.55;;;9.95;;
6713;SDS011;3394;51.246;6.792;2023-05-17T05:17:49;19.37;;;10.03;;
6713;SDS011;3394;51.246;6.792;2023-05-17T05:18:48;14.68;;;9.75;;
6713;SDS011;3394;51.246;6.792;2023-05-17T05:19:45;17.33;;;9.70;;
6713;SDS011;3394;51.246;6.792;2023-05-17T05:20:46;16.42;;;10.18;;
6713;SDS011;3394;51.246;6.792;2023-05-17T05:21:45;16.88;;;9.90;;
6713;SDS011;3394;51.246;6.792;2023-05-17T05:22:44;15.25;;;9.70;;
6713;SDS011;3394;51.246;6.792;2023-05-17T05:23:41;21.00;;;10.03;;
6713;SDS011;3394;51.246;6.792;2023-05-17T05:24:40;14.27;;;10.10;;
6713;SDS011;3394;51.246;6.792;2023-05-17T05:25:38;13.07;;;9.40;;
6713;SDS011;3394;51.246;6.792;2023-05-17T05:26:37;15.80;;;9.73;;
6713;SDS011;3394;51.246;6.792;2023-05-17T05:27:35;15.50;;;10.37;;
6713;SDS011;3394;51.246;6.792;2023-05-17T05:28:34;19.27;;;10.73;;
6713;SDS011;3394;51.246;6.792;2023-05-17T05:29:33;18.25;;;10.05;;
6713;SDS011;3394;51.246;6.792;2023-05-17T05:30:32;18.52;;;10.35;;
6713;SDS011;3394;51.246;6.792;2023-05-17T05:31:30;23.17;;;10.27;;
6713;SDS011;3394;51.246;6.792;2023-05-17T05:32:28;17.60;;;10.10;;
6713;SDS011;3394;51.246;6.792;2023-05-17T05:33:26;15.73;;;9.80;;
6713;SDS011;3394;51.246;6.792;2023-05-17T05:34:25;20.38;;;10.50;;
6713;SDS011;3394;51.246;6.792;2023-05-17T05:35:24;17.13;;;10.18;;
6713;SDS011;3394;51.246;6.792;2023-05-17T05:36:27;12.68;;;9.80;;
6713;SDS011;3394;51.246;6.792;2023-05-17T05:37:25;19.55;;;10.77;;
6713;SDS011;3394;51.246;6.792;2023-05-17T05:38:24;16.48;;;10.32;;
6713;SDS011;3394;51.246;6.792;2023-05-17T05:39:22;19.33;;;11.03;;
6713;SDS011;3394;51.246;6.792;2023-05-17T05:40:20;18.52;;;10.93;;
6713;SDS011;3394;51.246;6.792;2023-05-17T05:41:19;15.50;;;10.48;;
6713;SDS011;3394;51.246;6.792;2023-05-17T05:42:17;16.50;;;10.35;;
6713;SDS011;3394;51.246;6.792;2023-05-17T05:43:15;18.00;;;11.13;;
6713;SDS011;3394;51.246;6.792;2023-05-17T05:44:14;20.20;;;10.88;;
6713;SDS011;3394;51.246;6.792;2023-05-17T05:45:13;20.85;;;10.43;;
6713;SDS011;3394;51.246;6.792;2023-05-17T05:46:11;18.13;;;10.68;;
6713;SDS011;3394;51.246;6.792;2023-05-17T05:47:10;14.98;;;10.75;;
6713;SDS011;3394;51.246;6.792;2023-05-17T05:48:08;19.13;;;11.57;;
6713;SDS011;3394;51.246;6.792;2023-05-17T05:49:07;19.20;;;12.35;;
6713;SDS011;3394;51.246;6.792;2023-05-17T05:50:06;21.85;;;12.65;;
6713;SDS011;3394;51.246;6.792;2023-05-17T05:51:05;21.13;;;12.60;;
6713;SDS011;3394;51.246;6.792;2023-05-17T05:52:05;21.17;;;12.38;;
6713;SDS011;3394;51.246;6.792;2023-05-17T05:53:03;20.20;;;12.35;;
6713;SDS011;3394;51.246;6.792;2023-05-17T05:54:02;18.00;;;11.68;;
6713;SDS011;3394;51.246;6.792;2023-05-17T05:55:00;22.43;;;12.93;;
6713;SDS011;3394;51.246;6.792;2023-05-17T05:55:59;19.05;;;12.35;;
6713;SDS011;3394;51.246;6.792;2023-05-17T05:56:57;18.58;;;12.32;;
6713;SDS011;3394;51.246;6.792;2023-05-17T05:57:56;20.80;;;12.98;;
6713;SDS011;3394;51.246;6.792;2023-05-17T05:58:55;20.17;;;12.50;;
6713;SDS011;3394;51.246;6.792;2023-05-17T05:59:54;22.95;;;12.25;;
6713;SDS011;3394;51.246;6.792;2023-05-17T06:00:52;22.37;;;12.73;;
6713;SDS011;3394;51.246;6.792;2023-05-17T06:01:51;22.25;;;12.27;;
6713;SDS011;3394;51.246;6.792;2023-05-17T06:02:49;24.20;;;13.67;;
6713;SDS011;3394;51.246;6.792;2023-05-17T06:03:49;25.40;;;13.43;;
6713;SDS011;3394;51.246;6.792;2023-05-17T06:04:47;19.98;;;12.65;;
6713;SDS011;3394;51.246;6.792;2023-05-17T06:05:46;21.45;;;13.05;;